Aviation Digital Data Service (ADDS)

Output produced by METARs form (0659 UTC 27 September 2016)
found at http://aviationweather.gov/adds/metars/
 
KLCH 270520Z 2706/2806 02005KT P6SM SCT050 BKN150 
     FM271200 03008KT P6SM SCT050 BKN100